createdAt,value
2023-01-20T00:01:10.356Z,6.13
2023-01-20T00:03:39.412Z,6.01
2023-01-20T00:06:07.211Z,5.93
2023-01-20T00:08:35.012Z,6.04
2023-01-20T00:11:07.255Z,5.89
2023-01-20T00:13:38.426Z,5.87
2023-01-20T00:16:08.487Z,5.87
2023-01-20T00:18:36.617Z,5.95
2023-01-20T00:21:05.896Z,5.93
2023-01-20T00:23:33.702Z,5.89
2023-01-20T00:26:08.577Z,5.83
2023-01-20T00:28:36.453Z,5.73
2023-01-20T00:31:16.653Z,5.65
2023-01-20T00:33:44.820Z,5.72
2023-01-20T00:36:13.244Z,5.68
2023-01-20T00:38:40.950Z,5.75
2023-01-20T00:41:08.777Z,5.68
2023-01-20T00:43:36.629Z,5.61
2023-01-20T00:46:04.694Z,5.66
2023-01-20T00:48:32.751Z,5.72
2023-01-20T00:51:00.518Z,5.69
2023-01-20T00:53:28.298Z,5.65
2023-01-20T00:55:55.871Z,5.70
2023-01-20T00:58:23.547Z,5.73
2023-01-20T01:00:51.817Z,5.67
2023-01-20T01:03:19.570Z,5.60
2023-01-20T01:05:47.445Z,5.66
2023-01-20T01:08:15.304Z,5.62
2023-01-20T01:10:42.994Z,5.57
2023-01-20T01:13:10.655Z,5.56
2023-01-20T01:15:38.292Z,5.70
2023-01-20T01:18:06.036Z,5.71
2023-01-20T01:20:33.809Z,5.59
2023-01-20T01:23:01.563Z,5.65
2023-01-20T01:25:29.423Z,5.73
2023-01-20T01:27:57.131Z,5.68
2023-01-20T01:30:25.058Z,5.75
2023-01-20T01:32:52.849Z,5.74
2023-01-20T01:35:20.548Z,5.67
2023-01-20T01:37:48.244Z,5.77
2023-01-20T01:40:16.181Z,5.82
2023-01-20T01:42:43.923Z,5.74
2023-01-20T01:45:12.071Z,5.77
2023-01-20T01:47:44.941Z,5.86
2023-01-20T01:50:20.730Z,5.86
2023-01-20T01:52:49.324Z,5.74
2023-01-20T01:55:17.264Z,5.76
2023-01-20T01:57:45.231Z,5.84
2023-01-20T02:00:13.190Z,5.86
2023-01-20T02:02:43.773Z,5.98
2023-01-20T02:05:12.360Z,5.99
2023-01-20T02:07:40.154Z,5.97
2023-01-20T02:10:08.436Z,6.05
2023-01-20T02:12:36.273Z,6.02
2023-01-20T02:15:04.209Z,5.96
2023-01-20T02:17:33.089Z,6.03
2023-01-20T02:20:28.765Z,5.99
2023-01-20T02:23:16.030Z,6.12
2023-01-20T02:26:02.324Z,6.11
2023-01-20T02:28:46.007Z,6.15
2023-01-20T02:32:02.289Z,6.22
2023-01-20T02:34:46.811Z,6.28
2023-01-20T02:37:18.753Z,6.29
2023-01-20T02:39:56.822Z,6.32
2023-01-20T02:43:02.693Z,6.14
2023-01-20T02:45:56.455Z,5.93
2023-01-20T02:48:32.916Z,5.83
2023-01-20T02:51:07.876Z,5.84
2023-01-20T02:54:00.932Z,5.73
2023-01-20T02:56:29.420Z,5.73
2023-01-20T02:59:09.073Z,5.80
2023-01-20T03:01:40.215Z,5.80
2023-01-20T03:04:09.720Z,5.77
2023-01-20T03:06:38.996Z,5.80
2023-01-20T03:09:07.885Z,5.77
2023-01-20T03:11:36.480Z,5.78
2023-01-20T03:14:09.449Z,5.85
2023-01-20T03:16:37.463Z,5.85
2023-01-20T03:19:05.297Z,5.88
2023-01-20T03:21:33.822Z,5.89
2023-01-20T03:24:02.259Z,5.86
2023-01-20T03:26:31.055Z,5.77
2023-01-20T03:28:59.259Z,5.78
2023-01-20T03:31:55.164Z,5.73
2023-01-20T03:34:23.423Z,5.67
2023-01-20T03:36:51.058Z,5.62
2023-01-20T03:39:18.788Z,5.66
2023-01-20T03:42:17.033Z,5.61
2023-01-20T03:45:23.737Z,5.59
2023-01-20T03:47:58.353Z,5.51
2023-01-20T03:50:34.807Z,5.52
2023-01-20T03:53:05.396Z,5.55
2023-01-20T03:55:37.136Z,5.44
2023-01-20T03:58:07.532Z,5.42
2023-01-20T04:00:36.950Z,5.30
2023-01-20T04:03:07.924Z,5.32
2023-01-20T04:05:35.550Z,5.30
2023-01-20T04:08:05.599Z,5.16
2023-01-20T04:10:33.350Z,5.15
2023-01-20T04:13:01.120Z,5.08
2023-01-20T04:15:30.511Z,5.05
2023-01-20T04:17:58.252Z,5.01
2023-01-20T04:20:27.960Z,5.01
2023-01-20T04:22:57.105Z,5.05
2023-01-20T04:25:27.234Z,4.98
2023-01-20T04:27:54.925Z,5.01
2023-01-20T04:30:22.801Z,5.08
2023-01-20T04:32:50.538Z,5.06
2023-01-20T04:35:19.104Z,5.04
2023-01-20T04:37:46.805Z,5.01
2023-01-20T04:40:14.610Z,4.94
2023-01-20T04:42:42.345Z,4.94
2023-01-20T04:45:10.747Z,4.89
2023-01-20T04:47:38.423Z,4.84
2023-01-20T04:50:06.591Z,4.86
2023-01-20T04:52:34.325Z,4.82
2023-01-20T04:55:02.580Z,4.78
2023-01-20T04:57:30.509Z,4.71
2023-01-20T04:59:58.187Z,4.55
2023-01-20T05:02:25.994Z,4.56
2023-01-20T05:04:53.770Z,4.52
2023-01-20T05:07:21.475Z,4.61
2023-01-20T05:09:49.182Z,4.60
2023-01-20T05:12:16.869Z,4.59
2023-01-20T05:14:44.465Z,4.58
2023-01-20T05:17:12.152Z,4.66
2023-01-20T05:19:41.031Z,4.65
2023-01-20T05:22:08.728Z,4.60
2023-01-20T05:24:36.454Z,4.59
2023-01-20T05:27:04.241Z,4.62
2023-01-20T05:29:31.910Z,4.65
2023-01-20T05:31:59.495Z,4.65
2023-01-20T05:34:27.211Z,4.67
2023-01-20T05:36:54.975Z,4.69
2023-01-20T05:39:22.654Z,4.65
2023-01-20T05:41:50.642Z,4.65
2023-01-20T05:44:18.454Z,4.61
2023-01-20T05:46:46.273Z,4.61
2023-01-20T05:49:14.056Z,4.62
2023-01-20T05:51:41.669Z,4.58
2023-01-20T05:54:09.320Z,4.50
2023-01-20T05:56:37.474Z,4.57
2023-01-20T05:59:06.357Z,4.49
2023-01-20T06:01:33.990Z,4.36
2023-01-20T06:04:01.691Z,4.37
2023-01-20T06:06:29.666Z,4.23
2023-01-20T06:08:57.480Z,4.21
2023-01-20T06:11:25.241Z,4.25
2023-01-20T06:13:52.956Z,4.17
2023-01-20T06:16:20.695Z,4.16
2023-01-20T06:18:48.422Z,4.12
2023-01-20T06:21:16.093Z,4.05
2023-01-20T06:23:43.707Z,4.17
2023-01-20T06:26:12.572Z,4.25
2023-01-20T06:28:40.420Z,4.36
2023-01-20T06:31:09.954Z,4.40
2023-01-20T06:33:37.750Z,4.48
2023-01-20T06:36:05.733Z,4.44
2023-01-20T06:38:34.114Z,4.43
2023-01-20T06:41:03.607Z,4.47
2023-01-20T06:43:32.749Z,4.53
2023-01-20T06:46:01.655Z,4.57
2023-01-20T06:48:29.541Z,4.61
2023-01-20T06:51:04.350Z,4.63
2023-01-20T06:53:31.943Z,4.68
2023-01-20T06:55:59.880Z,4.74
2023-01-20T06:58:28.985Z,4.82
2023-01-20T07:00:56.803Z,4.89
2023-01-20T07:03:24.564Z,4.92
2023-01-20T07:06:02.513Z,4.96
2023-01-20T07:08:30.230Z,4.94
2023-01-20T07:10:57.799Z,4.86
2023-01-20T07:13:25.481Z,4.90
2023-01-20T07:15:53.056Z,4.91
2023-01-20T07:18:20.744Z,4.98
2023-01-20T07:20:52.849Z,4.88
2023-01-20T07:23:20.542Z,4.93
2023-01-20T07:25:48.156Z,5.06
2023-01-20T07:28:15.902Z,5.05
2023-01-20T07:30:43.466Z,5.00
2023-01-20T07:33:11.465Z,4.99
2023-01-20T07:35:39.144Z,5.00
2023-01-20T07:38:06.755Z,5.07
2023-01-20T07:40:34.342Z,5.11
2023-01-20T07:43:05.070Z,5.19
2023-01-20T07:45:32.889Z,5.25
2023-01-20T07:48:02.054Z,5.36
2023-01-20T07:50:30.284Z,5.36
2023-01-20T07:52:57.889Z,5.42
2023-01-20T07:55:25.515Z,5.54
2023-01-20T07:57:53.184Z,5.61
2023-01-20T08:00:21.074Z,5.58
2023-01-20T08:02:48.973Z,5.66
2023-01-20T08:05:17.234Z,5.68
2023-01-20T08:07:44.940Z,5.71
2023-01-20T08:10:12.775Z,5.85
2023-01-20T08:12:40.977Z,5.88
2023-01-20T08:15:09.325Z,5.89
2023-01-20T08:17:37.512Z,5.89
2023-01-20T08:20:06.253Z,5.97
2023-01-20T08:22:34.764Z,5.97
2023-01-20T08:25:02.533Z,5.99
2023-01-20T08:27:31.844Z,6.01
2023-01-20T08:29:59.831Z,6.09
2023-01-20T08:32:27.471Z,6.21
2023-01-20T08:34:55.223Z,6.24
2023-01-20T08:37:24.082Z,6.27
2023-01-20T08:39:51.830Z,6.32
2023-01-20T08:42:19.539Z,6.44
2023-01-20T08:44:54.896Z,6.36
2023-01-20T08:47:24.071Z,6.35
2023-01-20T08:49:53.750Z,6.38
2023-01-20T08:52:24.048Z,6.52
2023-01-20T08:54:53.207Z,6.56
2023-01-20T08:57:20.846Z,6.51
2023-01-20T08:59:53.455Z,6.65
2023-01-20T09:02:23.284Z,6.60
2023-01-20T09:04:51.715Z,6.55
2023-01-20T09:07:20.794Z,6.59
2023-01-20T09:09:48.430Z,6.60
2023-01-20T09:12:16.100Z,6.67
2023-01-20T09:14:43.757Z,6.72
2023-01-20T09:17:11.727Z,6.71
2023-01-20T09:19:39.368Z,6.66
2023-01-20T09:22:07.040Z,6.70
2023-01-20T09:24:34.969Z,6.71
2023-01-20T09:27:02.639Z,6.73
2023-01-20T09:29:30.507Z,6.66
2023-01-20T09:31:58.508Z,6.74
2023-01-20T09:34:30.891Z,6.71
2023-01-20T09:37:19.901Z,6.58
2023-01-20T09:40:06.079Z,6.75
2023-01-20T09:43:12.615Z,6.79
2023-01-20T09:45:53.382Z,6.75
2023-01-20T09:48:58.827Z,6.51
2023-01-20T09:52:01.662Z,6.63
2023-01-20T09:54:33.590Z,6.58
2023-01-20T09:57:01.344Z,6.66
2023-01-20T09:59:43.226Z,6.70
2023-01-20T10:02:28.443Z,6.75
2023-01-20T10:05:17.379Z,6.77
2023-01-20T10:08:05.000Z,6.80
2023-01-20T10:10:43.813Z,6.78
2023-01-20T10:13:20.377Z,6.83
2023-01-20T10:15:55.818Z,6.96
2023-01-20T14:11:16.059Z,5.86
2023-01-20T14:13:54.419Z,5.61
2023-01-20T14:16:34.949Z,5.48
2023-01-20T14:19:27.711Z,5.35
2023-01-20T14:21:56.899Z,5.18
2023-01-20T14:24:33.489Z,5.04
2023-01-20T14:27:24.760Z,5.13
2023-01-20T14:29:54.043Z,5.13
2023-01-20T14:32:34.650Z,4.98
2023-01-20T14:35:03.305Z,4.92
2023-01-20T14:37:38.306Z,4.81
2023-01-20T14:40:11.947Z,4.75
2023-01-20T14:42:41.016Z,4.69
2023-01-20T14:45:22.281Z,4.61
2023-01-20T14:47:50.091Z,4.60
2023-01-20T14:50:19.706Z,4.57
2023-01-20T14:52:48.619Z,4.32
2023-01-20T14:55:36.514Z,4.19
2023-01-20T14:58:17.571Z,4.10
2023-01-20T15:00:49.379Z,3.98
2023-01-20T15:03:20.675Z,4.03
2023-01-20T15:06:03.586Z,3.95
2023-01-20T15:08:34.883Z,3.87
2023-01-20T15:11:19.278Z,3.88
2023-01-20T15:13:53.375Z,3.78
2023-01-20T15:16:29.402Z,3.81
2023-01-20T15:19:17.701Z,3.73
2023-01-20T15:21:51.941Z,3.69
2023-01-20T15:24:30.739Z,3.69
2023-01-20T15:27:00.730Z,3.74
2023-01-20T15:29:33.700Z,3.72
2023-01-20T15:32:03.395Z,3.58
2023-01-20T15:34:31.158Z,3.63
2023-01-20T15:36:58.900Z,3.58
2023-01-20T15:39:30.540Z,3.56
2023-01-20T15:41:58.594Z,3.57
2023-01-20T15:44:30.448Z,3.49
2023-01-20T15:46:58.387Z,3.36
2023-01-20T15:49:26.322Z,3.38
2023-01-20T15:51:54.013Z,3.40
2023-01-20T15:54:21.845Z,3.42
2023-01-20T15:56:50.583Z,3.39
2023-01-20T15:59:21.065Z,3.39
2023-01-20T16:01:51.537Z,3.32
2023-01-20T16:04:19.344Z,3.36
2023-01-20T16:06:47.041Z,3.30
2023-01-20T16:09:27.330Z,3.30
2023-01-20T16:11:55.514Z,3.33
2023-01-20T16:14:23.385Z,3.26
2023-01-20T16:16:51.413Z,3.24
2023-01-20T16:19:19.324Z,3.21
2023-01-20T16:21:47.508Z,3.13
2023-01-20T16:24:15.492Z,3.18
2023-01-20T16:26:43.284Z,3.11
2023-01-20T16:29:11.053Z,3.08
2023-01-20T16:31:38.962Z,3.10
2023-01-20T16:34:08.073Z,3.00
2023-01-20T16:36:36.457Z,3.00
2023-01-20T16:39:04.322Z,2.95
2023-01-20T16:41:32.078Z,2.95
2023-01-20T16:44:00.861Z,2.86
2023-01-20T16:46:35.718Z,2.93
2023-01-20T16:49:03.681Z,2.90
2023-01-20T16:51:32.767Z,2.81
2023-01-20T16:54:03.490Z,2.79
2023-01-20T16:56:32.561Z,2.79
2023-01-20T16:59:01.754Z,2.69
2023-01-20T17:01:33.332Z,2.70
2023-01-20T17:04:02.429Z,2.71
2023-01-20T17:06:34.791Z,2.67
2023-01-20T17:09:04.777Z,2.58
2023-01-20T17:11:36.853Z,2.64
2023-01-20T17:14:06.339Z,2.63
2023-01-20T17:16:34.218Z,2.60
2023-01-20T17:19:02.428Z,2.54
2023-01-20T17:21:31.644Z,2.51
2023-01-20T17:24:05.699Z,2.49
2023-01-20T17:26:33.446Z,2.43
2023-01-20T17:29:02.599Z,2.44
2023-01-20T17:31:33.257Z,2.43
2023-01-20T17:34:03.311Z,2.36
2023-01-20T17:36:34.901Z,2.38
2023-01-20T17:39:03.646Z,2.38
2023-01-20T17:41:31.621Z,2.28
2023-01-20T17:43:59.248Z,2.29
2023-01-20T17:46:28.483Z,2.29
2023-01-20T17:49:00.051Z,2.19
2023-01-20T17:51:29.516Z,2.23
2023-01-20T17:54:02.542Z,2.21
2023-01-20T17:56:31.082Z,2.28
2023-01-20T17:59:00.370Z,2.22
2023-01-20T18:01:29.706Z,2.27
2023-01-20T18:04:01.527Z,2.30
2023-01-20T18:06:29.667Z,2.27
2023-01-20T18:08:59.627Z,2.26
2023-01-20T18:11:32.205Z,2.28
2023-01-20T18:14:00.691Z,2.33
2023-01-20T18:16:36.191Z,2.37
2023-01-20T18:19:03.998Z,2.36
2023-01-20T18:21:36.575Z,2.35
2023-01-20T18:24:05.725Z,2.34
2023-01-20T18:26:34.946Z,2.40
2023-01-20T18:29:06.851Z,2.36
2023-01-20T18:31:35.929Z,2.39
2023-01-20T18:34:08.492Z,2.47
2023-01-20T18:36:40.802Z,2.48
2023-01-20T18:39:16.146Z,2.48
2023-01-20T18:41:44.109Z,2.44
2023-01-20T18:44:12.147Z,2.46
2023-01-20T18:46:42.898Z,2.48
2023-01-20T18:49:14.487Z,2.50
2023-01-20T18:51:42.529Z,2.53
2023-01-20T18:54:17.754Z,2.57
2023-01-20T18:56:45.573Z,2.53
2023-01-20T18:59:13.367Z,2.54
2023-01-20T19:01:41.873Z,2.54
2023-01-20T19:04:12.231Z,2.50
2023-01-20T19:06:42.056Z,2.53
2023-01-20T22:47:44.809Z,2.02
2023-01-20T22:50:12.678Z,2.01
2023-01-20T22:52:40.239Z,2.03
2023-01-20T22:55:10.116Z,1.93
2023-01-20T22:57:37.861Z,1.96
2023-01-20T23:00:06.319Z,1.91
2023-01-20T23:02:40.748Z,1.90
2023-01-20T23:05:08.568Z,1.94
2023-01-20T23:07:38.649Z,2.01
2023-01-20T23:10:07.029Z,2.00
2023-01-20T23:12:34.711Z,1.95
2023-01-20T23:15:02.964Z,1.92
2023-01-20T23:17:31.381Z,1.94
2023-01-20T23:20:19.101Z,1.90
2023-01-20T23:22:47.358Z,1.82
2023-01-20T23:25:15.138Z,1.88
2023-01-20T23:27:42.990Z,1.96
2023-01-20T23:30:14.092Z,1.94
2023-01-20T23:32:42.098Z,1.85
2023-01-20T23:35:10.023Z,2.00
2023-01-20T23:37:37.847Z,1.96
2023-01-20T23:40:05.947Z,2.02
2023-01-20T23:42:34.101Z,1.96
2023-01-20T23:45:01.704Z,1.91
2023-01-20T23:47:29.437Z,1.89
2023-01-20T23:49:57.416Z,2.02
2023-01-20T23:52:26.297Z,2.01
2023-01-20T23:54:56.813Z,1.95
2023-01-20T23:57:24.465Z,1.93
2023-01-20T23:59:52.042Z,1.96
